Capay, California
Current Conditions -  °F | °C
As of 4:35 AM on Sunday 21 Dec 2014 (Local Time) from KEDU Reporting Station
Overcast Overcast  
Wind Chill: 55°   Ceiling: 300
Heat Index: 55°   Visibility: 4mi
Dew Point: 55°   Wind: 6mph
Humidity: 100%   Direction: 180°S
Pressure: 30.23"   Gusts: NA
Location:  38.7°N, 122.04°W
Report Text: KEDU 211235Z AUTO 18005KT 4SM OVC003 13/13 A3023 RMK AO1
Loading
Personal Weather Stations






























Interactive Weather Map New forecast layout! Learn more

10-Day Weather Forecast

Advertisements
Track Severe Weather on mobile